Time;durP1;ratioP1;P1;durP2;ratioP2;P2;SDS_P1;SDS_P2;PMS_P1;PMS_P2;Temp;Humidity;BMP_temperature;BMP_pressure;BME280_temperature;BME280_humidity;BME280_pressure;Samples;Min_cycle;Max_cycle;Signal;HPM_P1;HPM_P2
2022/10/12 00:00:18;;;;;;;;;;;6.30;99.90;;;;;;6116335;23;19925;-61
2022/10/12 00:02:44;;;;;;;;;;;6.30;99.90;;;;;;6116734;23;19936;-61
2022/10/12 00:05:09;;;;;;;;;;;6.30;99.90;;;;;;6117038;23;19925;-61
2022/10/12 00:07:35;;;;;;;;;;;6.20;99.90;;;;;;6116103;23;20398;-61
2022/10/12 00:10:01;;;;;;;;;;;6.30;99.90;;;;;;6117011;23;20254;-61
2022/10/12 00:12:26;;;;;;;;;;;6.30;99.90;;;;;;6117030;23;19992;-61
2022/10/12 00:14:52;;;;;;;;;;;6.30;99.90;;;;;;6117031;23;20354;-61
2022/10/12 00:17:17;;;;;;;;;;;6.30;99.90;;;;;;6117029;23;19925;-61
2022/10/12 00:19:43;;;;;;;;;;;6.30;99.90;;;;;;6117291;23;19960;-61
2022/10/12 00:22:08;;;;;;;;;;;6.30;99.90;;;;;;6115889;23;19925;-61
2022/10/12 00:24:34;;;;;;;;;;;6.30;99.90;;;;;;6116908;23;19953;-61
2022/10/12 00:26:59;;;;;;;;;;;6.30;99.90;;;;;;6115658;23;20457;-61
2022/10/12 00:29:25;;;;;;;;;;;6.30;99.90;;;;;;6116661;23;19980;-61
2022/10/12 00:31:50;;;;;;;;;;;6.20;99.90;;;;;;6116735;23;20351;-61
2022/10/12 00:34:16;;;;;;;;;;;8.10;99.90;;;;;;6116704;23;19924;-61
2022/10/12 00:36:42;;;;;;;;;;;6.20;99.90;;;;;;6116729;23;19925;-61
2022/10/12 00:39:08;;;;;;;;;;;6.40;99.90;;;;;;6115199;23;19925;-61
2022/10/12 00:41:35;;;;;;;;;;;6.20;99.90;;;;;;6113764;23;20327;-61
2022/10/12 00:44:00;;;;;;;;;;;6.20;99.90;;;;;;6116820;23;20004;-61
2022/10/12 00:46:37;;;;;;;;;;;6.20;99.90;;;;;;6116132;23;19965;-61
2022/10/12 00:49:12;;;;;;;;;;;6.10;99.90;;;;;;6116768;23;19924;-63
2022/10/12 00:51:38;;;;;;;;;;;6.10;99.90;;;;;;6116297;23;19928;-62
2022/10/12 00:54:07;;;;;;;;;;;6.20;99.90;;;;;;6115673;23;19925;-62
2022/10/12 00:56:34;;;;;;;;;;;6.10;99.90;;;;;;6116063;23;19925;-62
2022/10/12 00:59:02;;;;;;;;;;;6.10;99.90;;;;;;6116170;23;20004;-62
2022/10/12 01:01:28;;;;;;;;;;;6.10;99.90;;;;;;6116242;23;19925;-62
2022/10/12 01:03:54;;;;;;;;;;;6.10;99.90;;;;;;6116757;23;19975;-64
2022/10/12 01:06:19;;;;;;;;;;;6.00;99.90;;;;;;6116134;23;19925;-62
2022/10/12 01:08:45;;;;;;;;;;;6.00;99.90;;;;;;6116267;23;20273;-62
2022/10/12 01:11:10;;;;;;;;;;;6.00;99.90;;;;;;6115816;23;19929;-65
2022/10/12 01:13:36;;;;;;;;;;;6.00;99.90;;;;;;6116337;23;19931;-63
2022/10/12 01:16:05;;;;;;;;;;;6.00;99.90;;;;;;6115754;23;20251;-64
2022/10/12 01:18:36;;;;;;;;;;;5.90;99.90;;;;;;6115664;23;20382;-65
2022/10/12 01:21:10;;;;;;;;;;;6.00;99.90;;;;;;6116084;23;19933;-65
2022/10/12 01:23:35;;;;;;;;;;;6.00;99.90;;;;;;6116349;23;19956;-63
2022/10/12 01:26:01;;;;;;;;;;;5.90;99.90;;;;;;6116066;23;19929;-64
2022/10/12 01:28:35;;;;;;;;;;;5.90;99.90;;;;;;6115969;23;20233;-63
2022/10/12 01:31:10;;;;;;;;;;;5.90;99.90;;;;;;6116612;23;19925;-62
2022/10/12 01:33:39;;;;;;;;;;;5.80;99.90;;;;;;6116112;23;20472;-62
2022/10/12 01:36:11;;;;;;;;;;;5.80;99.90;;;;;;6116300;23;19929;-65
2022/10/12 01:38:55;;;;;;;;;;;5.70;99.90;;;;;;6115679;23;19924;-62
2022/10/12 01:41:26;;;;;;;;;;;5.70;99.90;;;;;;6116150;23;19925;-63
2022/10/12 01:43:51;;;;;;;;;;;5.60;99.90;;;;;;6116033;23;20366;-65
2022/10/12 01:46:17;;;;;;;;;;;5.60;99.90;;;;;;6115928;23;19932;-64
2022/10/12 01:48:44;;;;;;;;;;;5.60;99.90;;;;;;6115516;23;20342;-64
2022/10/12 01:51:11;;;;;;;;;;;5.60;99.90;;;;;;6115948;23;19931;-64
2022/10/12 01:53:41;;;;;;;;;;;5.60;99.90;;;;;;6116083;23;19988;-65
2022/10/12 01:56:19;;;;;;;;;;;5.50;99.90;;;;;;6115732;23;19925;-63
2022/10/12 01:59:03;;;;;;;;;;;5.50;99.90;;;;;;6115616;23;19952;-63
2022/10/12 02:01:28;;;;;;;;;;;5.50;99.90;;;;;;6115778;23;19925;-62
2022/10/12 02:04:05;;;;;;;;;;;5.50;99.90;;;;;;6113687;23;20005;-63
2022/10/12 02:06:44;;;;;;;;;;;5.50;99.90;;;;;;6115998;23;19925;-62
2022/10/12 02:09:13;;;;;;;;;;;5.50;99.90;;;;;;6115112;23;19925;-65
2022/10/12 02:11:41;;;;;;;;;;;5.50;99.90;;;;;;6115810;23;20004;-65
2022/10/12 02:14:15;;;;;;;;;;;5.50;99.90;;;;;;6115651;23;19925;-65
2022/10/12 02:16:46;;;;;;;;;;;5.50;99.90;;;;;;6115194;23;19924;-64
2022/10/12 02:19:15;;;;;;;;;;;5.60;99.90;;;;;;6115886;23;19960;-62
2022/10/12 02:21:41;;;;;;;;;;;5.60;99.90;;;;;;6115782;23;19925;-62
2022/10/12 02:24:08;;;;;;;;;;;5.70;99.90;;;;;;6116401;23;20283;-64
2022/10/12 02:26:35;;;;;;;;;;;5.70;99.90;;;;;;6117043;23;19932;-61
2022/10/12 02:29:02;;;;;;;;;;;5.70;99.90;;;;;;6117203;23;19925;-61
2022/10/12 02:31:28;;;;;;;;;;;5.70;99.90;;;;;;6117333;23;20224;-61
2022/10/12 02:33:53;;;;;;;;;;;5.70;99.90;;;;;;6117082;23;20328;-61
2022/10/12 02:36:26;;;;;;;;;;;5.60;99.90;;;;;;6116289;23;19925;-61
2022/10/12 02:39:00;;;;;;;;;;;5.60;99.90;;;;;;6116787;23;19929;-61
2022/10/12 02:41:32;;;;;;;;;;;5.60;99.90;;;;;;6115193;23;20033;-61
2022/10/12 02:43:59;;;;;;;;;;;5.60;99.90;;;;;;6116009;23;20362;-60
2022/10/12 02:46:25;;;;;;;;;;;5.60;99.90;;;;;;6115961;23;19925;-61
2022/10/12 02:48:53;;;;;;;;;;;5.60;99.90;;;;;;6116151;23;19999;-65
2022/10/12 02:51:18;;;;;;;;;;;5.60;99.90;;;;;;6116884;23;20356;-65
2022/10/12 02:53:44;;;;;;;;;;;5.70;99.90;;;;;;6117029;23;20239;-65
2022/10/12 02:56:11;;;;;;;;;;;5.70;99.90;;;;;;6116750;23;19925;-65
2022/10/12 02:58:37;;;;;;;;;;;6.00;99.90;;;;;;6116604;23;19975;-64
2022/10/12 03:01:02;;;;;;;;;;;5.60;99.90;;;;;;6116658;23;20332;-64
2022/10/12 03:03:28;;;;;;;;;;;5.60;99.90;;;;;;6116971;23;19933;-64
2022/10/12 03:05:53;;;;;;;;;;;5.70;99.90;;;;;;6116580;23;20019;-65
2022/10/12 03:08:19;;;;;;;;;;;5.70;99.90;;;;;;6116790;23;19925;-65
2022/10/12 03:10:45;;;;;;;;;;;5.70;99.90;;;;;;6116263;23;19924;-65
2022/10/12 03:13:10;;;;;;;;;;;5.70;99.90;;;;;;6117053;23;20010;-62
2022/10/12 03:15:36;;;;;;;;;;;5.70;99.90;;;;;;6116251;23;20011;-61
2022/10/12 03:18:01;;;;;;;;;;;5.70;99.90;;;;;;6116795;23;19929;-62
2022/10/12 03:20:27;;;;;;;;;;;5.80;99.90;;;;;;6116294;23;19971;-62
2022/10/12 03:22:52;;;;;;;;;;;5.70;99.90;;;;;;6116939;23;19925;-61
2022/10/12 03:25:18;;;;;;;;;;;5.80;99.90;;;;;;6116876;23;19964;-62
2022/10/12 03:27:43;;;;;;;;;;;5.80;99.90;;;;;;6114736;23;19924;-62
2022/10/12 03:30:10;;;;;;;;;;;5.70;99.90;;;;;;6114683;23;19925;-62
2022/10/12 03:32:36;;;;;;;;;;;5.80;99.90;;;;;;6116361;23;19932;-64
2022/10/12 03:35:01;;;;;;;;;;;5.70;99.90;;;;;;6116802;23;19928;-62
2022/10/12 03:37:27;;;;;;;;;;;5.70;99.90;;;;;;6116089;23;19932;-64
2022/10/12 03:39:53;;;;;;;;;;;5.70;99.90;;;;;;6116350;23;19932;-62
2022/10/12 03:42:18;;;;;;;;;;;5.70;99.90;;;;;;6116258;23;19948;-62
2022/10/12 03:44:44;;;;;;;;;;;5.70;99.90;;;;;;6116446;23;20430;-63
2022/10/12 03:47:09;;;;;;;;;;;5.70;99.90;;;;;;6115986;23;19925;-63
2022/10/12 03:49:35;;;;;;;;;;;5.70;99.90;;;;;;6116470;23;19925;-64
2022/10/12 03:52:00;;;;;;;;;;;5.70;99.90;;;;;;6117092;23;19925;-62
2022/10/12 03:54:26;;;;;;;;;;;5.70;99.90;;;;;;6116270;23;19954;-63
2022/10/12 03:56:51;;;;;;;;;;;5.70;99.90;;;;;;6116990;23;20367;-65
2022/10/12 03:59:17;;;;;;;;;;;5.70;99.90;;;;;;6116550;23;19947;-62
2022/10/12 04:01:42;;;;;;;;;;;5.70;99.90;;;;;;6116227;23;19925;-62
2022/10/12 04:04:09;;;;;;;;;;;5.70;99.90;;;;;;6116733;23;19924;-62
2022/10/12 04:06:34;;;;;;;;;;;5.70;99.90;;;;;;6116655;23;19925;-62
2022/10/12 04:09:00;;;;;;;;;;;5.70;99.90;;;;;;6116412;23;19925;-63
2022/10/12 04:11:25;;;;;;;;;;;5.70;99.90;;;;;;6116655;23;19932;-64
2022/10/12 04:13:51;;;;;;;;;;;5.70;99.90;;;;;;6116637;23;20297;-62
2022/10/12 04:16:16;;;;;;;;;;;5.70;99.90;;;;;;6116052;23;19925;-62
2022/10/12 04:18:42;;;;;;;;;;;5.70;99.90;;;;;;6116263;23;19931;-62
2022/10/12 04:21:12;;;;;;;;;;;5.70;99.90;;;;;;6116225;23;19925;-61
2022/10/12 04:23:38;;;;;;;;;;;5.70;99.90;;;;;;6116814;23;19931;-61
2022/10/12 04:26:03;;;;;;;;;;;5.70;99.90;;;;;;6116714;23;19929;-63
2022/10/12 04:28:29;;;;;;;;;;;5.70;99.90;;;;;;6116309;23;19939;-62
2022/10/12 04:30:54;;;;;;;;;;;6.00;99.90;;;;;;6115842;23;20316;-63
2022/10/12 04:33:20;;;;;;;;;;;5.70;99.90;;;;;;6114065;23;19927;-62
2022/10/12 04:35:45;;;;;;;;;;;5.80;99.90;;;;;;6115432;23;19967;-62
2022/10/12 04:38:12;;;;;;;;;;;5.80;99.90;;;;;;6116336;23;19952;-63
2022/10/12 04:40:37;;;;;;;;;;;5.80;99.90;;;;;;6115506;23;19925;-64
2022/10/12 04:43:03;;;;;;;;;;;5.80;99.90;;;;;;6116725;23;19931;-61
2022/10/12 04:45:29;;;;;;;;;;;5.70;99.90;;;;;;6113737;23;20251;-61
2022/10/12 04:47:54;;;;;;;;;;;5.80;99.90;;;;;;6115618;23;19932;-61
2022/10/12 04:50:21;;;;;;;;;;;5.80;99.90;;;;;;6115183;23;20237;-61
2022/10/12 04:52:46;;;;;;;;;;;5.80;99.90;;;;;;6113249;23;19924;-61
2022/10/12 04:55:12;;;;;;;;;;;5.90;99.90;;;;;;6114917;23;20224;-61
2022/10/12 04:57:37;;;;;;;;;;;5.90;99.90;;;;;;6114555;23;19951;-61
2022/10/12 05:00:03;;;;;;;;;;;5.90;99.90;;;;;;6113938;23;19999;-61
2022/10/12 05:02:29;;;;;;;;;;;5.90;99.90;;;;;;6116082;23;19996;-61
2022/10/12 05:04:54;;;;;;;;;;;5.90;99.90;;;;;;6114565;23;19928;-61
2022/10/12 05:07:20;;;;;;;;;;;5.90;99.90;;;;;;6112998;23;19932;-61
2022/10/12 05:09:46;;;;;;;;;;;5.90;99.90;;;;;;6112673;23;20351;-61
2022/10/12 05:12:11;;;;;;;;;;;5.90;99.90;;;;;;6112394;23;20007;-61
2022/10/12 05:14:37;;;;;;;;;;;5.90;99.90;;;;;;6112102;23;19929;-61
2022/10/12 05:17:03;;;;;;;;;;;5.90;99.90;;;;;;6113090;23;19978;-61
2022/10/12 05:19:28;;;;;;;;;;;5.90;99.90;;;;;;6114315;23;19925;-61
2022/10/12 05:21:54;;;;;;;;;;;6.40;99.90;;;;;;6113616;23;19925;-61
2022/10/12 05:24:20;;;;;;;;;;;5.90;99.90;;;;;;6114455;23;19970;-61
2022/10/12 05:26:45;;;;;;;;;;;5.90;99.90;;;;;;6113297;23;19955;-61
2022/10/12 05:29:11;;;;;;;;;;;5.90;99.90;;;;;;6111596;23;20390;-61
2022/10/12 05:31:36;;;;;;;;;;;6.00;99.90;;;;;;6113672;23;19925;-63
2022/10/12 05:34:02;;;;;;;;;;;5.90;99.90;;;;;;6114048;23;19925;-64
2022/10/12 05:36:27;;;;;;;;;;;5.90;99.90;;;;;;6113189;23;20045;-65
2022/10/12 05:38:53;;;;;;;;;;;5.90;99.90;;;;;;6112845;23;19925;-65
2022/10/12 05:41:18;;;;;;;;;;;5.90;99.90;;;;;;6114016;23;20004;-63
2022/10/12 05:43:44;;;;;;;;;;;5.80;99.90;;;;;;6113449;23;19924;-63
2022/10/12 05:46:09;;;;;;;;;;;5.80;99.90;;;;;;6112071;23;19925;-62
2022/10/12 05:48:35;;;;;;;;;;;5.80;99.90;;;;;;6113373;23;20339;-62
2022/10/12 05:51:00;;;;;;;;;;;5.80;99.90;;;;;;6113520;23;20286;-64
2022/10/12 05:53:26;;;;;;;;;;;5.70;99.90;;;;;;6113311;23;20665;-64
2022/10/12 05:55:55;;;;;;;;;;;5.70;99.90;;;;;;6113727;23;19996;-65
2022/10/12 05:58:22;;;;;;;;;;;5.70;99.90;;;;;;6115342;23;19936;-61
2022/10/12 06:00:47;;;;;;;;;;;5.70;99.90;;;;;;6112922;23;19924;-61
2022/10/12 06:03:13;;;;;;;;;;;5.60;99.90;;;;;;6115895;23;20047;-61
2022/10/12 06:05:39;;;;;;;;;;;5.60;99.90;;;;;;6115946;23;19924;-61
2022/10/12 06:08:04;;;;;;;;;;;5.50;99.90;;;;;;6041009;23;1771960;-61
2022/10/12 06:10:30;;;;;;;;;;;5.50;99.90;;;;;;6116647;23;20332;-61
2022/10/12 06:12:56;;;;;;;;;;;5.50;99.90;;;;;;6117483;23;19932;-61
2022/10/12 06:15:21;;;;;;;;;;;5.60;99.90;;;;;;6113192;23;20259;-61
2022/10/12 06:17:47;;;;;;;;;;;5.50;99.90;;;;;;6115862;23;19932;-61
2022/10/12 06:20:13;;;;;;;;;;;5.60;99.90;;;;;;6116729;23;20220;-61
2022/10/12 06:22:38;;;;;;;;;;;5.50;99.90;;;;;;6116010;23;19970;-61
2022/10/12 06:25:04;;;;;;;;;;;5.60;99.90;;;;;;6116547;23;20342;-61
2022/10/12 06:27:29;;;;;;;;;;;5.60;99.90;;;;;;6116209;23;20332;-62
2022/10/12 06:29:55;;;;;;;;;;;5.60;99.90;;;;;;6116292;23;19925;-62
2022/10/12 06:32:20;;;;;;;;;;;5.70;99.90;;;;;;6116224;23;20259;-62
2022/10/12 06:34:46;;;;;;;;;;;6.30;99.90;;;;;;6116761;23;19932;-62
2022/10/12 06:37:12;;;;;;;;;;;5.80;99.90;;;;;;6117012;23;20461;-62
2022/10/12 06:39:37;;;;;;;;;;;5.80;99.90;;;;;;6114852;23;19925;-62
2022/10/12 06:42:03;;;;;;;;;;;5.90;99.90;;;;;;6116370;23;19964;-62
2022/10/12 06:44:28;;;;;;;;;;;5.90;99.90;;;;;;6115987;23;19996;-62
2022/10/12 06:46:54;;;;;;;;;;;6.00;99.90;;;;;;6116906;23;19957;-61
2022/10/12 06:49:19;;;;;;;;;;;6.10;99.90;;;;;;6116835;23;19924;-63
2022/10/12 06:51:45;;;;;;;;;;;6.10;99.90;;;;;;6115736;23;20043;-62
2022/10/12 06:54:10;;;;;;;;;;;6.20;99.90;;;;;;6116633;23;19931;-61
2022/10/12 06:56:38;;;;;;;;;;;6.20;99.90;;;;;;6116607;23;19971;-62
2022/10/12 06:59:04;;;;;;;;;;;6.30;99.90;;;;;;6115028;23;19925;-62
2022/10/12 07:01:29;;;;;;;;;;;6.40;99.90;;;;;;6115662;23;19925;-62
2022/10/12 07:03:55;;;;;;;;;;;6.40;99.90;;;;;;6116303;23;19924;-62
2022/10/12 07:06:20;;;;;;;;;;;6.40;99.90;;;;;;6114749;23;19983;-61
2022/10/12 07:08:47;;;;;;;;;;;6.50;99.90;;;;;;6113737;23;19955;-62
2022/10/12 07:11:13;;;;;;;;;;;6.50;99.90;;;;;;6114050;23;20340;-62
2022/10/12 07:13:39;;;;;;;;;;;6.50;99.90;;;;;;6114421;23;19921;-62
2022/10/12 07:16:05;;;;;;;;;;;6.60;99.90;;;;;;6114776;23;19929;-61
2022/10/12 07:18:31;;;;;;;;;;;6.60;99.90;;;;;;6114811;23;20333;-61
2022/10/12 07:20:58;;;;;;;;;;;6.60;99.90;;;;;;6116527;23;19924;-61
2022/10/12 07:23:28;;;;;;;;;;;6.70;99.90;;;;;;6116326;23;19924;-61
2022/10/12 07:25:54;;;;;;;;;;;6.70;99.90;;;;;;6116205;23;20276;-61
2022/10/12 07:28:19;;;;;;;;;;;6.80;99.90;;;;;;6114329;23;19978;-61
2022/10/12 07:30:46;;;;;;;;;;;6.80;99.90;;;;;;6116065;23;19924;-61
2022/10/12 07:33:11;;;;;;;;;;;6.90;99.90;;;;;;6116583;23;20130;-62
2022/10/12 07:35:37;;;;;;;;;;;7.40;99.90;;;;;;6116557;23;19928;-61
2022/10/12 07:38:02;;;;;;;;;;;7.00;99.90;;;;;;6117299;23;19925;-61
2022/10/12 07:40:28;;;;;;;;;;;7.40;99.90;;;;;;6116347;23;19925;-62
2022/10/12 07:42:54;;;;;;;;;;;7.20;99.90;;;;;;6116855;23;20332;-61
2022/10/12 07:45:20;;;;;;;;;;;7.30;99.90;;;;;;6116367;23;19925;-61
2022/10/12 07:47:46;;;;;;;;;;;7.30;99.90;;;;;;6116207;23;20300;-61
2022/10/12 07:50:12;;;;;;;;;;;7.50;99.90;;;;;;6116881;23;19983;-62
2022/10/12 07:52:37;;;;;;;;;;;7.60;99.90;;;;;;6116728;23;19929;-63
2022/10/12 07:55:03;;;;;;;;;;;7.60;99.90;;;;;;6116379;23;20004;-61
2022/10/12 07:57:29;;;;;;;;;;;7.80;99.90;;;;;;6116352;23;19987;-61
2022/10/12 07:59:54;;;;;;;;;;;8.10;99.90;;;;;;6116322;23;19928;-61
2022/10/12 08:02:20;;;;;;;;;;;7.90;99.90;;;;;;6116027;23;19921;-61
2022/10/12 08:04:46;;;;;;;;;;;8.00;99.90;;;;;;6115875;23;19931;-61
2022/10/12 08:07:12;;;;;;;;;;;8.50;99.90;;;;;;6115636;23;19960;-61
2022/10/12 08:09:37;;;;;;;;;;;8.10;99.90;;;;;;6116544;23;19932;-62
2022/10/12 08:12:03;;;;;;;;;;;8.20;99.90;;;;;;6116330;23;20538;-61
2022/10/12 08:14:28;;;;;;;;;;;8.30;99.90;;;;;;6115861;23;19925;-61
2022/10/12 08:16:54;;;;;;;;;;;8.30;99.90;;;;;;6116029;23;19925;-61
2022/10/12 08:19:20;;;;;;;;;;;8.70;99.90;;;;;;6112955;23;19925;-61
2022/10/12 08:21:45;;;;;;;;;;;8.50;99.90;;;;;;6113020;23;19979;-61
2022/10/12 08:24:11;;;;;;;;;;;8.50;99.90;;;;;;6114603;23;20752;-61
2022/10/12 08:26:37;;;;;;;;;;;8.60;99.90;;;;;;6114254;23;19986;-62
2022/10/12 08:29:03;;;;;;;;;;;8.70;99.90;;;;;;6114736;23;19932;-62
2022/10/12 08:31:29;;;;;;;;;;;8.80;99.90;;;;;;6114769;23;19925;-61
2022/10/12 08:33:58;;;;;;;;;;;8.90;99.90;;;;;;6115331;23;19932;-62
2022/10/12 08:36:23;;;;;;;;;;;9.10;99.90;;;;;;6112563;23;20308;-62
2022/10/12 08:38:52;;;;;;;;;;;9.20;99.90;;;;;;6114932;23;19955;-62
2022/10/12 08:41:21;;;;;;;;;;;9.40;99.90;;;;;;6114470;23;20454;-62
2022/10/12 08:43:55;;;;;;;;;;;9.60;99.90;;;;;;6114406;23;19932;-62
2022/10/12 08:46:22;;;;;;;;;;;9.80;99.90;;;;;;6114531;23;20380;-63
2022/10/12 08:49:11;;;;;;;;;;;10.00;99.90;;;;;;6114637;23;19947;-65
2022/10/12 08:51:50;;;;;;;;;;;10.20;99.90;;;;;;6114251;23;20347;-65
2022/10/12 08:54:18;;;;;;;;;;;10.40;99.90;;;;;;6114052;23;20396;-66
2022/10/12 08:56:43;;;;;;;;;;;10.80;99.90;;;;;;6114822;23;19960;-65
2022/10/12 08:59:13;;;;;;;;;;;11.10;99.90;;;;;;6114741;23;20633;-66
2022/10/12 09:01:49;;;;;;;;;;;11.40;99.90;;;;;;6114768;23;19925;-66
2022/10/12 09:04:21;;;;;;;;;;;11.70;99.90;;;;;;6115402;23;19969;-66
2022/10/12 09:06:49;;;;;;;;;;;11.90;99.90;;;;;;6115236;23;20229;-65
2022/10/12 09:09:24;;;;;;;;;;;12.10;99.90;;;;;;6113758;23;19929;-66
2022/10/12 09:11:53;;;;;;;;;;;12.10;99.90;;;;;;6115549;23;20340;-66
2022/10/12 09:14:22;;;;;;;;;;;12.10;99.90;;;;;;6114890;23;20287;-65
2022/10/12 09:16:49;;;;;;;;;;;12.10;99.90;;;;;;6115038;23;19932;-65
2022/10/12 09:19:17;;;;;;;;;;;12.40;99.90;;;;;;6115764;23;19952;-66
2022/10/12 09:21:44;;;;;;;;;;;12.60;99.90;;;;;;6115493;23;20332;-66
2022/10/12 09:24:17;;;;;;;;;;;12.50;99.90;;;;;;6115463;23;19925;-66
2022/10/12 09:26:45;;;;;;;;;;;12.60;99.90;;;;;;6111521;23;20004;-65
2022/10/12 09:29:21;;;;;;;;;;;12.60;99.90;;;;;;6114758;23;19954;-66
2022/10/12 09:32:02;;;;;;;;;;;12.80;99.90;;;;;;6114671;23;19971;-66
2022/10/12 09:34:28;;;;;;;;;;;12.90;99.90;;;;;;6113964;23;19949;-64
2022/10/12 09:36:54;;;;;;;;;;;13.00;99.90;;;;;;6114356;23;20403;-63
2022/10/12 09:39:21;;;;;;;;;;;13.00;99.90;;;;;;6114416;23;20163;-64
2022/10/12 09:41:47;;;;;;;;;;;13.20;99.90;;;;;;6114058;23;20032;-63
2022/10/12 09:44:16;;;;;;;;;;;12.90;99.90;;;;;;6114682;23;19925;-65
2022/10/12 09:46:44;;;;;;;;;;;12.90;99.90;;;;;;6113889;23;20374;-62
2022/10/12 09:49:09;;;;;;;;;;;13.10;99.90;;;;;;6113988;23;19960;-63
2022/10/12 09:51:35;;;;;;;;;;;13.50;99.90;;;;;;6114631;23;19948;-64
2022/10/12 09:54:02;;;;;;;;;;;13.90;99.90;;;;;;6114833;23;19967;-62
2022/10/12 09:56:29;;;;;;;;;;;14.30;99.90;;;;;;6114390;23;19967;-63
2022/10/12 09:59:03;;;;;;;;;;;14.80;99.90;;;;;;6113197;23;20363;-65
2022/10/12 10:01:36;;;;;;;;;;;14.70;99.90;;;;;;6112444;23;19970;-63
2022/10/12 10:04:13;;;;;;;;;;;15.10;99.90;;;;;;6113559;23;20299;-63
2022/10/12 10:06:41;;;;;;;;;;;14.90;99.90;;;;;;6114695;23;20251;-64
2022/10/12 10:09:25;;;;;;;;;;;15.10;99.90;;;;;;6114615;23;19925;-63
2022/10/12 10:11:50;;;;;;;;;;;15.40;99.90;;;;;;6115158;23;20239;-62
2022/10/12 10:14:16;;;;;;;;;;;15.80;99.90;;;;;;6115342;23;20004;-63
2022/10/12 10:16:48;;;;;;;;;;;16.20;99.90;;;;;;6114471;23;19935;-63
2022/10/12 10:19:18;;;;;;;;;;;16.10;99.90;;;;;;6114280;23;19924;-62
2022/10/12 10:21:44;;;;;;;;;;;16.40;99.90;;;;;;6114917;23;19931;-63
2022/10/12 10:24:21;;;;;;;;;;;16.30;99.90;;;;;;6114986;23;19996;-67
2022/10/12 10:26:52;;;;;;;;;;;16.60;99.90;;;;;;6114226;23;20348;-62
2022/10/12 10:29:20;;;;;;;;;;;16.60;99.90;;;;;;6112706;23;20322;-62
2022/10/12 10:31:47;;;;;;;;;;;16.70;99.90;;;;;;6113639;23;19932;-63
2022/10/12 10:34:31;;;;;;;;;;;16.80;99.90;;;;;;6113946;23;19963;-62
2022/10/12 10:37:19;;;;;;;;;;;16.70;99.90;;;;;;6113283;23;20265;-62
2022/10/12 10:40:03;;;;;;;;;;;16.80;99.90;;;;;;6114316;23;19928;-63
2022/10/12 10:42:49;;;;;;;;;;;17.00;99.90;;;;;;6113616;23;19928;-63
2022/10/12 10:46:03;;;;;;;;;;;17.40;99.90;;;;;;6116016;23;19920;-66
2022/10/12 10:48:29;;;;;;;;;;;17.10;99.90;;;;;;6121797;23;19945;-65
2022/10/12 10:50:59;;;;;;;;;;;17.20;99.90;;;;;;6115429;23;20407;-66
2022/10/12 10:53:25;;;;;;;;;;;17.30;99.90;;;;;;6115609;23;20403;-64
2022/10/12 10:55:58;;;;;;;;;;;17.20;99.90;;;;;;6115782;23;19970;-63
2022/10/12 10:58:29;;;;;;;;;;;17.20;99.90;;;;;;6115169;23;20347;-62
2022/10/12 11:00:57;;;;;;;;;;;17.30;99.90;;;;;;6116011;23;19924;-64
2022/10/12 11:03:25;;;;;;;;;;;17.10;99.90;;;;;;6116080;23;19929;-65
2022/10/12 11:06:11;;;;;;;;;;;17.50;99.90;;;;;;6115308;23;19931;-63
2022/10/12 11:08:38;;;;;;;;;;;17.50;99.90;;;;;;6115485;23;19925;-63
2022/10/12 11:11:10;;;;;;;;;;;17.40;99.90;;;;;;6115323;23;20371;-65
2022/10/12 11:13:55;;;;;;;;;;;17.40;99.90;;;;;;6112172;23;20393;-63
2022/10/12 11:16:36;;;;;;;;;;;17.40;99.90;;;;;;6114778;23;19925;-64
2022/10/12 11:19:09;;;;;;;;;;;17.50;99.90;;;;;;6115194;23;19925;-63
2022/10/12 11:21:37;;;;;;;;;;;17.70;99.90;;;;;;6115464;23;19931;-65
2022/10/12 11:24:15;;;;;;;;;;;17.80;99.90;;;;;;6114872;23;19933;-63
2022/10/12 11:26:43;;;;;;;;;;;18.20;99.90;;;;;;6114986;23;20335;-63
2022/10/12 11:29:11;;;;;;;;;;;17.90;99.90;;;;;;6115160;23;19971;-63
2022/10/12 11:31:38;;;;;;;;;;;18.20;99.90;;;;;;6115058;23;19935;-63
2022/10/12 11:34:05;;;;;;;;;;;18.50;99.90;;;;;;6115131;23;19925;-63
2022/10/12 11:36:32;;;;;;;;;;;18.70;99.90;;;;;;6114911;23;20340;-63
2022/10/12 11:39:03;;;;;;;;;;;18.70;99.90;;;;;;6114387;23;20255;-63
2022/10/12 11:41:34;;;;;;;;;;;18.90;99.90;;;;;;6113103;23;19925;-64
2022/10/12 11:44:05;;;;;;;;;;;19.40;99.90;;;;;;6115087;23;20333;-63
2022/10/12 11:46:33;;;;;;;;;;;19.90;99.90;;;;;;6113992;23;20324;-63
2022/10/12 11:49:01;;;;;;;;;;;20.10;99.90;;;;;;6115316;23;19967;-63
2022/10/12 11:51:27;;;;;;;;;;;19.90;99.90;;;;;;6113294;23;19925;-63
2022/10/12 11:53:55;;;;;;;;;;;20.10;99.90;;;;;;6114487;23;19932;-63
2022/10/12 11:56:26;;;;;;;;;;;19.90;99.90;;;;;;6114966;23;19928;-62
2022/10/12 11:58:56;;;;;;;;;;;19.60;99.90;;;;;;6115089;23;19929;-64
2022/10/12 12:01:21;;;;;;;;;;;19.20;99.90;;;;;;6112795;23;19999;-63
2022/10/12 12:04:05;;;;;;;;;;;19.30;99.90;;;;;;6115274;23;19953;-64
2022/10/12 12:06:31;;;;;;;;;;;18.80;99.90;;;;;;6115012;23;19940;-65
2022/10/12 12:09:00;;;;;;;;;;;19.00;99.90;;;;;;6116196;23;19924;-63
2022/10/12 12:11:27;;;;;;;;;;;18.90;99.90;;;;;;6115188;23;19925;-63
2022/10/12 12:14:12;;;;;;;;;;;18.70;99.90;;;;;;6116457;23;19958;-64
2022/10/12 12:16:41;;;;;;;;;;;18.40;99.90;;;;;;6115617;23;20019;-63
2022/10/12 12:19:12;;;;;;;;;;;18.50;99.90;;;;;;6116246;23;19956;-64
2022/10/12 12:21:56;;;;;;;;;;;18.20;99.90;;;;;;6116245;23;19932;-64
2022/10/12 12:24:22;;;;;;;;;;;18.50;99.90;;;;;;6115989;23;20352;-65
2022/10/12 12:26:48;;;;;;;;;;;18.20;99.90;;;;;;6115840;23;19932;-65
2022/10/12 12:29:21;;;;;;;;;;;18.40;99.90;;;;;;6115978;23;19986;-63
2022/10/12 12:31:55;;;;;;;;;;;18.40;99.90;;;;;;6116654;23;19952;-63
2022/10/12 12:34:21;;;;;;;;;;;18.80;99.90;;;;;;6116178;23;19924;-65
2022/10/12 12:36:48;;;;;;;;;;;18.90;99.90;;;;;;6115557;23;19925;-63
2022/10/12 12:39:31;;;;;;;;;;;18.70;99.90;;;;;;6115436;23;19925;-63
2022/10/12 12:41:58;;;;;;;;;;;18.40;99.90;;;;;;6116025;23;19932;-63
2022/10/12 12:44:32;;;;;;;;;;;18.10;99.90;;;;;;6115605;23;20352;-63
2022/10/12 12:47:00;;;;;;;;;;;18.10;99.90;;;;;;6115917;23;19932;-63
2022/10/12 12:49:41;;;;;;;;;;;18.00;99.90;;;;;;6115553;23;20522;-65
2022/10/12 12:52:19;;;;;;;;;;;18.10;99.90;;;;;;6115141;23;19978;-63
2022/10/12 12:55:20;;;;;;;;;;;17.70;99.90;;;;;;6116103;23;19940;-64
2022/10/12 12:57:51;;;;;;;;;;;17.70;99.90;;;;;;6145713;23;20024;-63
2022/10/12 13:00:24;;;;;;;;;;;17.60;99.90;;;;;;6114429;23;20050;-63
2022/10/12 13:03:13;;;;;;;;;;;17.40;99.90;;;;;;6115075;23;19999;-65
2022/10/12 13:05:39;;;;;;;;;;;17.60;99.90;;;;;;6115187;23;20308;-63
2022/10/12 13:08:11;;;;;;;;;;;17.40;99.90;;;;;;6113629;23;20279;-63
2022/10/12 13:10:45;;;;;;;;;;;17.40;99.90;;;;;;6115570;23;20003;-64
2022/10/12 13:13:11;;;;;;;;;;;17.70;99.90;;;;;;6115849;23;19925;-65
2022/10/12 13:15:45;;;;;;;;;;;17.60;99.90;;;;;;6113623;23;20293;-64
2022/10/12 13:18:13;;;;;;;;;;;17.50;99.90;;;;;;6116128;23;19932;-64
2022/10/12 13:20:40;;;;;;;;;;;17.60;99.90;;;;;;6112209;23;20387;-65
2022/10/12 13:23:07;;;;;;;;;;;17.50;99.90;;;;;;6115112;23;20290;-65
2022/10/12 13:25:36;;;;;;;;;;;17.80;99.90;;;;;;6115802;23;19932;-65
2022/10/12 13:28:04;;;;;;;;;;;18.00;99.90;;;;;;6113455;23;19928;-65
2022/10/12 13:30:48;;;;;;;;;;;17.90;99.90;;;;;;6114838;23;19921;-64
2022/10/12 13:33:14;;;;;;;;;;;18.20;99.90;;;;;;6113827;23;19953;-63
2022/10/12 13:35:54;;;;;;;;;;;18.20;99.90;;;;;;6115278;23;20248;-63
2022/10/12 13:38:21;;;;;;;;;;;19.50;99.90;;;;;;6113229;23;19952;-63
2022/10/12 13:40:51;;;;;;;;;;;20.80;99.90;;;;;;6115281;23;19978;-63
2022/10/12 13:43:26;;;;;;;;;;;19.70;99.90;;;;;;6114281;23;19963;-64
2022/10/12 13:45:52;;;;;;;;;;;19.60;99.90;;;;;;6115551;23;20356;-64
2022/10/12 13:48:19;;;;;;;;;;;22.10;98.70;;;;;;6114438;23;20023;-63
2022/10/12 13:50:55;;;;;;;;;;;21.00;97.80;;;;;;6114055;23;19925;-63
2022/10/12 13:53:21;;;;;;;;;;;20.00;99.40;;;;;;6112640;23;20296;-64
2022/10/12 13:55:53;;;;;;;;;;;19.80;99.70;;;;;;6112628;23;19996;-63
2022/10/12 13:58:25;;;;;;;;;;;19.20;99.90;;;;;;6113874;23;19924;-63
2022/10/12 14:00:50;;;;;;;;;;;19.30;99.90;;;;;;6114615;23;19978;-63
2022/10/12 14:03:16;;;;;;;;;;;18.70;99.90;;;;;;6110984;23;19925;-62
2022/10/12 14:05:44;;;;;;;;;;;18.40;99.90;;;;;;6114294;23;20059;-63
2022/10/12 14:08:14;;;;;;;;;;;18.10;99.90;;;;;;6114267;23;20346;-63
2022/10/12 14:10:40;;;;;;;;;;;17.70;99.90;;;;;;6114750;23;19968;-63
2022/10/12 14:13:08;;;;;;;;;;;17.70;99.90;;;;;;6114970;23;19932;-63
2022/10/12 14:15:35;;;;;;;;;;;17.70;99.90;;;;;;6114916;23;19925;-63
2022/10/12 14:18:01;;;;;;;;;;;17.60;99.90;;;;;;6115054;23;19925;-62
2022/10/12 14:20:28;;;;;;;;;;;17.50;99.90;;;;;;6115837;23;19931;-63
2022/10/12 14:22:55;;;;;;;;;;;17.60;99.90;;;;;;6116356;23;20356;-63
2022/10/12 14:25:25;;;;;;;;;;;17.30;99.90;;;;;;6116459;23;19925;-63
2022/10/12 14:27:55;;;;;;;;;;;17.30;99.90;;;;;;6113546;23;19952;-63
2022/10/12 14:30:23;;;;;;;;;;;17.10;99.90;;;;;;6115316;23;19932;-62
2022/10/12 14:32:49;;;;;;;;;;;17.00;99.90;;;;;;6115256;23;19956;-63